Time;durP1;ratioP1;P1;durP2;ratioP2;P2;SDS_P1;SDS_P2;PMS_P1;PMS_P2;Temp;Humidity;BMP_temperature;BMP_pressure;BME280_temperature;BME280_humidity;BME280_pressure;Samples;Min_cycle;Max_cycle;Signal;HPM_P1;HPM_P2
2022/07/24 00:02:15;;;;;;;8.30;6.80;;;;;;;;;;5025791;28;20085;-79
2022/07/24 00:04:40;;;;;;;7.88;5.63;;;;;;;;;;5028760;28;20030;-78
2022/07/24 00:07:05;;;;;;;10.23;6.53;;;;;;;;;;5011561;28;20017;-77
2022/07/24 00:09:30;;;;;;;8.73;6.35;;;;;;;;;;5025315;28;20042;-77
2022/07/24 00:11:56;;;;;;;10.38;7.20;;;;;;;;;;5011388;28;20494;-78
2022/07/24 00:14:21;;;;;;;10.00;6.93;;;;;;;;;;5010441;28;20022;-78
2022/07/24 00:16:47;;;;;;;9.18;6.50;;;;;;;;;;5008518;28;20037;-77
2022/07/24 00:19:12;;;;;;;8.90;5.10;;;;;;;;;;5031143;28;20033;-77
2022/07/24 00:21:37;;;;;;;11.75;7.75;;;;;;;;;;5030223;28;20060;-77
2022/07/24 00:24:02;;;;;;;9.90;7.07;;;;;;;;;;5009163;28;20124;-78
2022/07/24 00:26:28;;;;;;;7.20;5.47;;;;;;;;;;5028724;28;20598;-78
2022/07/24 00:28:53;;;;;;;9.27;7.22;;;;;;;;;;5028771;28;20440;-77
2022/07/24 00:31:19;;;;;;;8.80;6.97;;;;;;;;;;5026587;28;20113;-78
2022/07/24 00:33:44;;;;;;;9.95;6.20;;;;;;;;;;5028424;28;20025;-78
2022/07/24 00:36:09;;;;;;;7.82;6.35;;;;;;;;;;5028497;28;20029;-78
2022/07/24 00:38:34;;;;;;;11.93;7.50;;;;;;;;;;5029104;28;20121;-79
2022/07/24 00:40:59;;;;;;;10.50;6.85;;;;;;;;;;5026690;28;20025;-77
2022/07/24 00:43:25;;;;;;;10.07;7.15;;;;;;;;;;5009127;28;20076;-78
2022/07/24 00:45:50;;;;;;;11.85;8.30;;;;;;;;;;5027847;28;20115;-78
2022/07/24 00:48:16;;;;;;;9.13;6.60;;;;;;;;;;5027604;28;20112;-78
2022/07/24 00:50:42;;;;;;;10.30;7.85;;;;;;;;;;5027051;28;20634;-77
2022/07/24 00:53:10;;;;;;;9.75;7.80;;;;;;;;;;5029681;28;20029;-77
2022/07/24 00:55:36;;;;;;;9.80;7.63;;;;;;;;;;5007756;28;20037;-78
2022/07/24 00:58:01;;;;;;;10.48;7.47;;;;;;;;;;5008091;28;20017;-78
2022/07/24 01:00:27;;;;;;;10.68;8.40;;;;;;;;;;5012591;28;20621;-78
2022/07/24 01:02:52;;;;;;;10.85;7.97;;;;;;;;;;5027419;28;20022;-78
2022/07/24 01:05:18;;;;;;;12.52;8.48;;;;;;;;;;5027377;28;20033;-78
2022/07/24 01:07:43;;;;;;;10.73;8.00;;;;;;;;;;5027936;28;20033;-78
2022/07/24 01:10:08;;;;;;;13.95;8.93;;;;;;;;;;5026949;28;20555;-77
2022/07/24 01:12:35;;;;;;;6.72;5.82;;;;;;;;;;5028225;28;20040;-78
2022/07/24 01:15:00;;;;;;;7.40;6.63;;;;;;;;;;5009803;28;20070;-77
2022/07/24 01:17:30;;;;;;;9.50;6.22;;;;;;;;;;5025908;28;20033;-78
2022/07/24 01:19:55;;;;;;;13.23;8.38;;;;;;;;;;5007294;28;20064;-78
2022/07/24 01:22:20;;;;;;;8.73;6.75;;;;;;;;;;5027685;28;20452;-78
2022/07/24 01:24:46;;;;;;;9.30;6.85;;;;;;;;;;5029044;28;20513;-78
2022/07/24 01:27:11;;;;;;;9.23;6.63;;;;;;;;;;5032595;28;20037;-78
2022/07/24 01:29:36;;;;;;;9.60;7.72;;;;;;;;;;5034795;28;20037;-78
2022/07/24 01:32:01;;;;;;;12.00;7.73;;;;;;;;;;5010334;28;20489;-77
2022/07/24 01:34:27;;;;;;;11.88;7.65;;;;;;;;;;5024235;28;20337;-78
2022/07/24 01:36:52;;;;;;;11.53;7.97;;;;;;;;;;5026522;28;20386;-77
2022/07/24 01:39:17;;;;;;;8.80;7.32;;;;;;;;;;5026223;28;20295;-78
2022/07/24 01:41:43;;;;;;;12.32;8.25;;;;;;;;;;5026651;28;20310;-77
2022/07/24 01:44:08;;;;;;;16.77;8.40;;;;;;;;;;5024592;28;20110;-77
2022/07/24 01:46:33;;;;;;;9.75;7.53;;;;;;;;;;5027617;28;20125;-77
2022/07/24 01:48:58;;;;;;;9.57;7.30;;;;;;;;;;5028810;28;20022;-78
2022/07/24 01:51:23;;;;;;;11.48;7.18;;;;;;;;;;5028714;28;20301;-78
2022/07/24 01:53:49;;;;;;;13.38;9.13;;;;;;;;;;5007927;28;20486;-78
2022/07/24 01:56:14;;;;;;;9.18;7.82;;;;;;;;;;5026813;28;20032;-78
2022/07/24 01:58:40;;;;;;;11.05;7.18;;;;;;;;;;5005702;28;20413;-78
2022/07/24 02:01:05;;;;;;;11.23;8.40;;;;;;;;;;5026651;28;20093;-78
2022/07/24 02:03:30;;;;;;;9.88;7.88;;;;;;;;;;5003655;28;20026;-79
2022/07/24 02:05:56;;;;;;;9.75;6.03;;;;;;;;;;5032617;28;20131;-78
2022/07/24 02:08:21;;;;;;;11.48;7.28;;;;;;;;;;5024622;28;20128;-78
2022/07/24 02:10:46;;;;;;;10.45;8.02;;;;;;;;;;5029564;28;20086;-77
2022/07/24 02:13:11;;;;;;;9.43;7.27;;;;;;;;;;5026346;28;20329;-77
2022/07/24 02:15:37;;;;;;;9.63;7.72;;;;;;;;;;5028181;28;20385;-78
2022/07/24 02:18:02;;;;;;;11.20;8.02;;;;;;;;;;5024797;28;20026;-78
2022/07/24 02:20:27;;;;;;;11.90;7.35;;;;;;;;;;5007062;28;20080;-78
2022/07/24 02:22:53;;;;;;;7.80;5.78;;;;;;;;;;5007750;28;20038;-78
2022/07/24 02:25:18;;;;;;;10.40;6.57;;;;;;;;;;5028093;28;20022;-77
2022/07/24 02:27:43;;;;;;;11.52;7.10;;;;;;;;;;5027050;28;20033;-77
2022/07/24 02:30:10;;;;;;;8.82;7.18;;;;;;;;;;5025290;28;20160;-78
2022/07/24 02:32:36;;;;;;;10.90;7.28;;;;;;;;;;5008030;28;20079;-77
2022/07/24 02:35:01;;;;;;;11.80;6.90;;;;;;;;;;5025125;28;20029;-78
2022/07/24 02:37:27;;;;;;;10.68;6.93;;;;;;;;;;5025998;28;20098;-78
2022/07/24 02:39:52;;;;;;;9.32;7.13;;;;;;;;;;5024748;28;20059;-78
2022/07/24 02:42:17;;;;;;;10.57;7.22;;;;;;;;;;5027125;28;20037;-79
2022/07/24 02:44:42;;;;;;;14.48;8.30;;;;;;;;;;5024591;28;20065;-79
2022/07/24 02:47:08;;;;;;;7.95;6.35;;;;;;;;;;5026615;28;20651;-79
2022/07/24 02:49:33;;;;;;;12.50;7.40;;;;;;;;;;5028529;28;20036;-79
2022/07/24 02:51:58;;;;;;;10.27;7.22;;;;;;;;;;5028600;28;20033;-76
2022/07/24 02:54:23;;;;;;;9.38;7.63;;;;;;;;;;5030289;28;20473;-77
2022/07/24 02:56:48;;;;;;;12.80;7.25;;;;;;;;;;5016591;28;20122;-77
2022/07/24 02:59:14;;;;;;;11.45;7.68;;;;;;;;;;5029556;28;20029;-78
2022/07/24 03:01:39;;;;;;;11.35;8.50;;;;;;;;;;5011547;28;20104;-77
2022/07/24 03:04:04;;;;;;;7.63;6.13;;;;;;;;;;5030564;28;20061;-78
2022/07/24 03:06:29;;;;;;;11.10;7.70;;;;;;;;;;5028571;28;20030;-78
2022/07/24 03:08:55;;;;;;;11.75;6.75;;;;;;;;;;5017412;28;20076;-79
2022/07/24 03:11:20;;;;;;;9.05;6.85;;;;;;;;;;5028745;28;20467;-77
2022/07/24 03:13:45;;;;;;;11.67;8.67;;;;;;;;;;5011342;28;20425;-77
2022/07/24 03:16:10;;;;;;;9.48;7.47;;;;;;;;;;5029914;28;20316;-78
2022/07/24 03:18:36;;;;;;;12.27;9.15;;;;;;;;;;5029305;28;20436;-77
2022/07/24 03:21:01;;;;;;;11.98;7.55;;;;;;;;;;5011648;28;20037;-78
2022/07/24 03:23:26;;;;;;;11.15;7.45;;;;;;;;;;5028480;28;20069;-78
2022/07/24 03:25:52;;;;;;;8.77;6.80;;;;;;;;;;5030823;28;20083;-78
2022/07/24 03:28:18;;;;;;;9.23;7.78;;;;;;;;;;5030348;28;20381;-77
2022/07/24 03:30:43;;;;;;;13.88;9.15;;;;;;;;;;5028470;28;20040;-77
2022/07/24 03:33:08;;;;;;;11.05;8.38;;;;;;;;;;5027424;28;20036;-77
2022/07/24 03:35:36;;;;;;;8.68;6.70;;;;;;;;;;5028775;28;20037;-77
2022/07/24 03:38:05;;;;;;;10.65;7.55;;;;;;;;;;5025584;28;20033;-77
2022/07/24 03:40:30;;;;;;;9.07;6.95;;;;;;;;;;5027886;28;20120;-77
2022/07/24 03:42:55;;;;;;;11.97;8.40;;;;;;;;;;5026427;28;20124;-77
2022/07/24 03:45:20;;;;;;;12.05;8.57;;;;;;;;;;5012014;28;20423;-78
2022/07/24 03:47:46;;;;;;;11.55;8.75;;;;;;;;;;5012080;28;20026;-77
2022/07/24 03:50:14;;;;;;;13.35;9.35;;;;;;;;;;5027523;28;20018;-78
2022/07/24 03:52:39;;;;;;;11.80;9.00;;;;;;;;;;5032482;28;20037;-77
2022/07/24 03:55:04;;;;;;;10.88;8.25;;;;;;;;;;5011421;28;20106;-76
2022/07/24 03:57:29;;;;;;;11.18;8.85;;;;;;;;;;5011016;28;20112;-77
2022/07/24 03:59:55;;;;;;;10.88;8.13;;;;;;;;;;5028063;28;20021;-77
2022/07/24 04:02:20;;;;;;;10.98;7.63;;;;;;;;;;5027059;28;20025;-79
2022/07/24 04:04:45;;;;;;;13.73;8.50;;;;;;;;;;5027179;28;20100;-79
2022/07/24 04:07:10;;;;;;;9.07;7.13;;;;;;;;;;5009366;28;20027;-79
2022/07/24 04:09:35;;;;;;;10.95;8.15;;;;;;;;;;5031431;28;20682;-78
2022/07/24 04:12:01;;;;;;;13.43;8.13;;;;;;;;;;5028733;28;20389;-78
2022/07/24 04:14:26;;;;;;;10.77;8.25;;;;;;;;;;5012727;28;20108;-77
2022/07/24 04:16:51;;;;;;;10.13;7.57;;;;;;;;;;5011200;28;20489;-78
2022/07/24 04:19:17;;;;;;;12.35;8.75;;;;;;;;;;5026788;28;20048;-77
2022/07/24 04:21:42;;;;;;;10.80;7.68;;;;;;;;;;5008812;28;20489;-78
2022/07/24 04:24:07;;;;;;;12.52;8.23;;;;;;;;;;5024422;28;20077;-76
2022/07/24 04:26:33;;;;;;;8.90;7.43;;;;;;;;;;5012467;28;20044;-78
2022/07/24 04:28:58;;;;;;;11.55;7.88;;;;;;;;;;5014399;28;20022;-78
2022/07/24 04:31:23;;;;;;;10.23;7.90;;;;;;;;;;5029220;28;20076;-77
2022/07/24 04:33:48;;;;;;;12.52;8.45;;;;;;;;;;5009811;28;20030;-77
2022/07/24 04:36:13;;;;;;;13.48;9.40;;;;;;;;;;5026740;28;20048;-77
2022/07/24 04:38:39;;;;;;;12.07;8.70;;;;;;;;;;5030480;28;20025;-79
2022/07/24 04:41:04;;;;;;;13.68;8.90;;;;;;;;;;5027318;28;20039;-77
2022/07/24 04:43:29;;;;;;;11.80;8.90;;;;;;;;;;5013414;28;20025;-78
2022/07/24 04:45:55;;;;;;;18.70;11.10;;;;;;;;;;5012021;28;20435;-78
2022/07/24 04:48:20;;;;;;;10.30;7.68;;;;;;;;;;5012612;28;20071;-77
2022/07/24 04:50:45;;;;;;;12.45;8.90;;;;;;;;;;5028641;28;20030;-77
2022/07/24 04:53:11;;;;;;;9.85;8.27;;;;;;;;;;5028316;28;20029;-77
2022/07/24 04:55:36;;;;;;;12.73;8.00;;;;;;;;;;5011637;28;20030;-77
2022/07/24 04:58:01;;;;;;;15.07;10.18;;;;;;;;;;5027202;28;20057;-77
2022/07/24 05:00:27;;;;;;;14.82;10.55;;;;;;;;;;5011638;28;20041;-77
2022/07/24 05:02:52;;;;;;;17.95;11.85;;;;;;;;;;4997159;28;20047;-79
2022/07/24 05:05:17;;;;;;;13.90;9.77;;;;;;;;;;5025066;28;20030;-77
2022/07/24 05:07:42;;;;;;;12.25;9.00;;;;;;;;;;5029378;28;20037;-80
2022/07/24 05:10:08;;;;;;;12.02;9.35;;;;;;;;;;5026070;28;20076;-77
2022/07/24 05:12:33;;;;;;;13.60;9.70;;;;;;;;;;5025319;28;20087;-78
2022/07/24 05:14:58;;;;;;;19.55;11.35;;;;;;;;;;5029487;28;20413;-77
2022/07/24 05:17:24;;;;;;;16.50;10.10;;;;;;;;;;5025849;28;20032;-78
2022/07/24 05:19:49;;;;;;;13.20;10.18;;;;;;;;;;5029559;28;20029;-77
2022/07/24 05:22:14;;;;;;;15.40;10.90;;;;;;;;;;5009462;28;20033;-79
2022/07/24 05:24:39;;;;;;;15.98;11.63;;;;;;;;;;5027631;28;20325;-78
2022/07/24 05:27:04;;;;;;;14.93;11.73;;;;;;;;;;5030468;28;20029;-76
2022/07/24 05:29:30;;;;;;;20.73;12.50;;;;;;;;;;5029105;28;20014;-77
2022/07/24 05:31:55;;;;;;;17.95;12.60;;;;;;;;;;5029745;28;20036;-77
2022/07/24 05:34:21;;;;;;;15.27;10.90;;;;;;;;;;5026323;28;20037;-79
2022/07/24 05:36:46;;;;;;;19.40;11.15;;;;;;;;;;5031959;28;20064;-78
2022/07/24 05:39:11;;;;;;;21.10;14.05;;;;;;;;;;5012364;28;20037;-77
2022/07/24 05:41:37;;;;;;;17.05;12.95;;;;;;;;;;5027172;28;20451;-78
2022/07/24 05:44:02;;;;;;;19.35;12.68;;;;;;;;;;5031309;28;20022;-78
2022/07/24 05:46:27;;;;;;;19.88;13.88;;;;;;;;;;5016890;28;20046;-78
2022/07/24 05:48:52;;;;;;;20.23;13.53;;;;;;;;;;5030253;28;20112;-78
2022/07/24 05:51:17;;;;;;;17.83;12.98;;;;;;;;;;5026569;28;20274;-78
2022/07/24 05:53:43;;;;;;;19.60;12.98;;;;;;;;;;5040106;28;20384;-79
2022/07/24 05:56:08;;;;;;;17.48;11.88;;;;;;;;;;5022792;28;20033;-79
2022/07/24 05:58:34;;;;;;;17.75;12.30;;;;;;;;;;5008643;28;20022;-77
2022/07/24 06:00:59;;;;;;;23.83;15.75;;;;;;;;;;5024416;28;20025;-77
2022/07/24 06:03:28;;;;;;;19.20;11.87;;;;;;;;;;5025141;28;20044;-78
2022/07/24 06:05:53;;;;;;;21.77;13.43;;;;;;;;;;5028021;28;20278;-77
2022/07/24 06:08:18;;;;;;;19.52;12.98;;;;;;;;;;5033351;28;20086;-77
2022/07/24 06:10:43;;;;;;;23.20;15.50;;;;;;;;;;5024376;28;20079;-79
2022/07/24 06:13:09;;;;;;;20.70;13.93;;;;;;;;;;5027518;28;20025;-78
2022/07/24 06:15:34;;;;;;;22.45;15.07;;;;;;;;;;5029184;28;20575;-77
2022/07/24 06:17:59;;;;;;;17.77;12.77;;;;;;;;;;5045682;28;20021;-77
2022/07/24 06:20:24;;;;;;;20.53;12.67;;;;;;;;;;5031341;28;20032;-77
2022/07/24 06:22:50;;;;;;;20.50;15.18;;;;;;;;;;5031335;28;20290;-79
2022/07/24 06:25:16;;;;;;;23.85;14.43;;;;;;;;;;5023131;28;20430;-78
2022/07/24 06:27:45;;;;;;;23.55;14.43;;;;;;;;;;5013355;28;20029;-77
2022/07/24 06:30:15;;;;;;;19.00;13.25;;;;;;;;;;5044298;28;20040;-78
2022/07/24 06:32:40;;;;;;;18.02;14.20;;;;;;;;;;5023819;28;20029;-78
2022/07/24 06:35:08;;;;;;;20.25;14.23;;;;;;;;;;5036439;28;20037;-78
2022/07/24 06:37:34;;;;;;;16.83;11.50;;;;;;;;;;5040544;28;20026;-78
2022/07/24 06:39:59;;;;;;;17.75;13.75;;;;;;;;;;5043256;28;20045;-79
2022/07/24 06:42:24;;;;;;;17.43;11.10;;;;;;;;;;5042051;28;20090;-79
2022/07/24 06:44:50;;;;;;;16.13;10.98;;;;;;;;;;5029102;28;20381;-79
2022/07/24 06:47:18;;;;;;;15.73;11.37;;;;;;;;;;5030786;28;20048;-78
2022/07/24 06:49:46;;;;;;;16.77;10.60;;;;;;;;;;5031577;28;20309;-78
2022/07/24 06:52:11;;;;;;;17.98;11.45;;;;;;;;;;5025543;28;20021;-78
2022/07/24 06:54:41;;;;;;;14.40;10.02;;;;;;;;;;5028537;28;20384;-78
2022/07/24 06:57:06;;;;;;;14.45;10.13;;;;;;;;;;5026356;28;20053;-79
2022/07/24 06:59:31;;;;;;;14.07;8.77;;;;;;;;;;5027366;28;20555;-78
2022/07/24 07:01:57;;;;;;;13.52;8.75;;;;;;;;;;5020106;28;20034;-79
2022/07/24 07:04:22;;;;;;;9.98;7.78;;;;;;;;;;5021367;28;20121;-78
2022/07/24 07:06:47;;;;;;;10.32;7.15;;;;;;;;;;5025004;28;20040;-77
2022/07/24 07:09:12;;;;;;;9.27;7.30;;;;;;;;;;5024465;28;20038;-77
2022/07/24 07:11:38;;;;;;;9.55;6.07;;;;;;;;;;5006484;28;20032;-78
2022/07/24 07:14:03;;;;;;;8.40;6.30;;;;;;;;;;5027371;28;20386;-80
2022/07/24 07:16:28;;;;;;;8.77;7.05;;;;;;;;;;5007995;28;20041;-77
2022/07/24 07:18:54;;;;;;;10.75;6.78;;;;;;;;;;5031240;28;20029;-78
2022/07/24 07:21:19;;;;;;;8.07;5.80;;;;;;;;;;5026674;28;20045;-77
2022/07/24 07:23:44;;;;;;;9.38;5.80;;;;;;;;;;5019238;28;20073;-78
2022/07/24 07:26:09;;;;;;;8.93;5.35;;;;;;;;;;5029739;28;20072;-77
2022/07/24 07:28:34;;;;;;;5.70;5.20;;;;;;;;;;5023128;28;20116;-79
2022/07/24 07:31:00;;;;;;;7.75;5.82;;;;;;;;;;5017392;28;20116;-78
2022/07/24 07:33:26;;;;;;;6.75;4.55;;;;;;;;;;5010365;28;20373;-77
2022/07/24 07:35:54;;;;;;;5.80;4.95;;;;;;;;;;5031590;28;20029;-78
2022/07/24 07:38:20;;;;;;;6.30;4.60;;;;;;;;;;5038411;28;20106;-78
2022/07/24 07:40:45;;;;;;;4.85;4.10;;;;;;;;;;5035631;28;20033;-78
2022/07/24 07:43:10;;;;;;;5.82;4.43;;;;;;;;;;5035874;28;20075;-78
2022/07/24 07:45:36;;;;;;;4.65;4.03;;;;;;;;;;5031496;28;20034;-77
2022/07/24 07:48:02;;;;;;;5.55;4.10;;;;;;;;;;5033648;28;20087;-78
2022/07/24 07:50:27;;;;;;;5.65;4.10;;;;;;;;;;5033167;28;20025;-79
2022/07/24 07:52:52;;;;;;;5.85;4.00;;;;;;;;;;5034765;28;20490;-78
2022/07/24 07:55:20;;;;;;;6.70;4.43;;;;;;;;;;5030265;28;20029;-79
2022/07/24 07:57:49;;;;;;;4.18;3.72;;;;;;;;;;5030725;28;20041;-78
2022/07/24 08:00:14;;;;;;;5.60;4.32;;;;;;;;;;5032288;28;20029;-80
2022/07/24 08:02:39;;;;;;;5.35;4.55;;;;;;;;;;5042353;28;20055;-77
2022/07/24 08:05:05;;;;;;;7.90;4.20;;;;;;;;;;5031088;28;20379;-78
2022/07/24 08:07:30;;;;;;;5.63;4.65;;;;;;;;;;5034707;28;20013;-78
2022/07/24 08:09:56;;;;;;;6.18;4.50;;;;;;;;;;5024648;28;20075;-77
2022/07/24 08:12:21;;;;;;;6.20;4.28;;;;;;;;;;5033610;28;20030;-78
2022/07/24 08:14:46;;;;;;;4.63;4.13;;;;;;;;;;5015024;28;20029;-78
2022/07/24 08:17:12;;;;;;;5.03;3.97;;;;;;;;;;5035589;28;20273;-76
2022/07/24 08:19:37;;;;;;;5.63;3.40;;;;;;;;;;5014771;28;20358;-77
2022/07/24 08:22:04;;;;;;;5.07;3.45;;;;;;;;;;5035593;28;20056;-77
2022/07/24 08:24:31;;;;;;;5.68;3.72;;;;;;;;;;5028106;28;20069;-77
2022/07/24 08:26:56;;;;;;;6.55;3.95;;;;;;;;;;5024911;28;20018;-79
2022/07/24 08:29:22;;;;;;;5.45;3.58;;;;;;;;;;5031823;28;20052;-79
2022/07/24 08:31:47;;;;;;;7.78;3.10;;;;;;;;;;5033312;28;20029;-76
2022/07/24 08:34:12;;;;;;;4.15;3.38;;;;;;;;;;5027179;28;20018;-81
2022/07/24 08:36:38;;;;;;;4.70;3.30;;;;;;;;;;5010382;28;20018;-79
2022/07/24 08:39:04;;;;;;;4.35;3.10;;;;;;;;;;5027276;28;20097;-80
2022/07/24 08:41:33;;;;;;;5.22;3.88;;;;;;;;;;5028838;28;20856;-79
2022/07/24 08:43:59;;;;;;;5.63;3.25;;;;;;;;;;5011644;28;20064;-78
2022/07/24 08:46:25;;;;;;;3.30;3.00;;;;;;;;;;5041105;28;20028;-78
2022/07/24 08:48:50;;;;;;;4.53;2.85;;;;;;;;;;5032732;28;20351;-78
2022/07/24 08:51:15;;;;;;;5.93;3.40;;;;;;;;;;5016926;28;20065;-78
2022/07/24 08:53:42;;;;;;;4.90;2.95;;;;;;;;;;5034377;28;20034;-78
2022/07/24 08:56:07;;;;;;;3.38;2.80;;;;;;;;;;5033046;28;20109;-78
2022/07/24 08:58:39;;;;;;;5.00;3.63;;;;;;;;;;5040753;28;20100;-80
2022/07/24 09:01:05;;;;;;;3.42;3.03;;;;;;;;;;5040391;28;20036;-78
2022/07/24 09:03:40;;;;;;;4.22;3.00;;;;;;;;;;5011797;28;20033;-78
2022/07/24 09:06:07;;;;;;;4.35;3.00;;;;;;;;;;5029858;28;20029;-78
2022/07/24 09:08:33;;;;;;;4.03;3.08;;;;;;;;;;5034347;28;20052;-78
2022/07/24 09:11:03;;;;;;;4.20;3.20;;;;;;;;;;5046733;28;20430;-78
2022/07/24 09:16:25;;;;;;;3.40;3.00;;;;;;;;;;5033894;28;20060;-78
2022/07/24 09:19:01;;;;;;;3.80;3.40;;;;;;;;;;5030330;28;20397;-79
2022/07/24 09:21:26;;;;;;;5.57;3.30;;;;;;;;;;5030754;28;20065;-78
2022/07/24 09:23:51;;;;;;;3.67;3.08;;;;;;;;;;5040973;28;20071;-79
2022/07/24 09:26:17;;;;;;;5.07;3.33;;;;;;;;;;5015309;28;20469;-77
2022/07/24 09:28:48;;;;;;;4.72;3.15;;;;;;;;;;5038038;28;20530;-79
2022/07/24 09:31:13;;;;;;;6.00;3.58;;;;;;;;;;5022064;28;20029;-77
2022/07/24 09:33:38;;;;;;;7.57;3.60;;;;;;;;;;5029973;28;20025;-79
2022/07/24 09:36:11;;;;;;;4.27;3.87;;;;;;;;;;5032740;28;20478;-78
2022/07/24 09:38:36;;;;;;;4.45;3.60;;;;;;;;;;5044640;28;20281;-77
2022/07/24 09:41:02;;;;;;;4.22;3.78;;;;;;;;;;5000932;28;20030;-79
2022/07/24 09:43:28;;;;;;;5.15;4.10;;;;;;;;;;5027827;28;20084;-79
2022/07/24 09:45:56;;;;;;;5.07;3.70;;;;;;;;;;5034292;28;20378;-78
2022/07/24 09:48:22;;;;;;;5.55;3.35;;;;;;;;;;5032279;28;20079;-79
2022/07/24 09:50:49;;;;;;;7.60;3.47;;;;;;;;;;5032158;28;21561;-77
2022/07/24 09:53:16;;;;;;;4.18;3.75;;;;;;;;;;5026017;28;20458;-78
2022/07/24 09:55:42;;;;;;;4.03;3.33;;;;;;;;;;5034147;28;20036;-79
2022/07/24 09:58:16;;;;;;;5.25;3.38;;;;;;;;;;5029669;28;20037;-78
2022/07/24 10:00:42;;;;;;;5.75;3.75;;;;;;;;;;5022611;28;20503;-78
2022/07/24 10:03:13;;;;;;;5.70;3.85;;;;;;;;;;5023041;28;20420;-78
2022/07/24 10:05:43;;;;;;;6.95;4.10;;;;;;;;;;5035493;28;20599;-78
2022/07/24 10:08:09;;;;;;;4.93;4.35;;;;;;;;;;5030959;28;20382;-78
2022/07/24 10:10:35;;;;;;;9.20;4.57;;;;;;;;;;5031568;28;20293;-78
2022/07/24 10:13:00;;;;;;;4.38;3.90;;;;;;;;;;5028004;28;20119;-78
2022/07/24 10:15:29;;;;;;;7.22;3.63;;;;;;;;;;5029425;28;20088;-78
2022/07/24 10:18:08;;;;;;;7.03;3.95;;;;;;;;;;5032309;28;20100;-78
2022/07/24 10:20:38;;;;;;;4.65;3.85;;;;;;;;;;5024467;28;20073;-78
2022/07/24 10:23:04;;;;;;;6.10;3.80;;;;;;;;;;5028475;28;20029;-79
2022/07/24 10:25:34;;;;;;;6.43;4.15;;;;;;;;;;5033140;28;20670;-77
2022/07/24 10:28:01;;;;;;;6.18;3.85;;;;;;;;;;5031288;28;20091;-78
2022/07/24 10:30:27;;;;;;;5.35;3.60;;;;;;;;;;5010882;28;20026;-79
2022/07/24 10:32:52;;;;;;;4.40;3.63;;;;;;;;;;5032172;28;20440;-78
2022/07/24 10:35:21;;;;;;;8.00;4.13;;;;;;;;;;5011779;28;20034;-78
2022/07/24 10:38:05;;;;;;;5.50;3.30;;;;;;;;;;5030057;28;20021;-77
2022/07/24 10:40:39;;;;;;;5.28;4.13;;;;;;;;;;5010472;28;20041;-77
2022/07/24 10:43:08;;;;;;;6.90;3.70;;;;;;;;;;5027619;28;20046;-78
2022/07/24 10:45:34;;;;;;;6.47;4.10;;;;;;;;;;5028006;28;20524;-78
2022/07/24 10:48:19;;;;;;;5.57;4.32;;;;;;;;;;5028164;28;20453;-77
2022/07/24 10:50:56;;;;;;;7.55;3.75;;;;;;;;;;5024528;28;20025;-77
2022/07/24 10:53:22;;;;;;;4.80;3.45;;;;;;;;;;5027245;28;20047;-77
2022/07/24 10:55:47;;;;;;;4.80;3.88;;;;;;;;;;5005280;28;20025;-76
2022/07/24 10:58:15;;;;;;;5.85;4.35;;;;;;;;;;5024057;28;20024;-75
2022/07/24 11:00:43;;;;;;;8.05;4.68;;;;;;;;;;5008624;28;20071;-76
2022/07/24 11:03:19;;;;;;;7.35;4.22;;;;;;;;;;5025244;28;20584;-76
2022/07/24 11:06:01;;;;;;;5.00;4.30;;;;;;;;;;4998045;28;20363;-76
2022/07/24 11:08:29;;;;;;;;;;;;;;;;;;5026397;28;20024;-78
2022/07/24 11:10:56;;;;;;;5.75;3.67;;;;;;;;;;5029255;28;20028;-76
2022/07/24 11:13:34;;;;;;;6.85;4.20;;;;;;;;;;5028755;28;20025;-78
2022/07/24 11:16:12;;;;;;;5.20;3.83;;;;;;;;;;5031301;28;20148;-76
2022/07/24 11:18:37;;;;;;;6.60;4.93;;;;;;;;;;5031354;28;20024;-76
2022/07/24 11:21:03;;;;;;;5.78;4.10;;;;;;;;;;5027386;28;20413;-79
2022/07/24 11:23:28;;;;;;;6.93;4.80;;;;;;;;;;5009444;28;20037;-79
2022/07/24 11:26:12;;;;;;;6.88;4.20;;;;;;;;;;5031110;28;20022;-75
2022/07/24 11:28:37;;;;;;;8.20;4.47;;;;;;;;;;5021508;28;20029;-77
2022/07/24 11:31:03;;;;;;;3.50;3.20;;;;;;;;;;5028158;28;20022;-76
2022/07/24 11:33:29;;;;;;;6.75;3.78;;;;;;;;;;5013845;28;20294;-77
2022/07/24 11:35:54;;;;;;;4.82;4.10;;;;;;;;;;5029284;28;20401;-75
2022/07/24 11:38:27;;;;;;;6.82;4.00;;;;;;;;;;5027789;28;20037;-78
2022/07/24 11:41:05;;;;;;;5.32;3.63;;;;;;;;;;5025059;28;20037;-78
2022/07/24 11:43:33;;;;;;;5.22;4.00;;;;;;;;;;5028963;28;20038;-76
2022/07/24 11:45:58;;;;;;;11.50;3.85;;;;;;;;;;5028908;28;20374;-78
2022/07/24 11:48:23;;;;;;;4.90;3.70;;;;;;;;;;5030463;28;20027;-75
2022/07/24 11:50:49;;;;;;;5.22;3.38;;;;;;;;;;5037145;28;20029;-78
2022/07/24 11:53:14;;;;;;;6.53;3.20;;;;;;;;;;5015187;28;20114;-78
2022/07/24 11:55:39;;;;;;;5.85;3.63;;;;;;;;;;5035825;28;20830;-77
2022/07/24 11:58:04;;;;;;;4.43;3.08;;;;;;;;;;5017829;28;20022;-78
2022/07/24 12:00:30;;;;;;;4.80;3.47;;;;;;;;;;5035411;28;20021;-77
2022/07/24 12:02:57;;;;;;;5.85;3.80;;;;;;;;;;5015284;28;20037;-78
2022/07/24 12:05:30;;;;;;;3.97;3.47;;;;;;;;;;5017899;28;20053;-77
2022/07/24 12:07:56;;;;;;;3.55;3.15;;;;;;;;;;5040163;28;20034;-77
2022/07/24 12:10:22;;;;;;;6.47;4.10;;;;;;;;;;5034166;28;20374;-77
2022/07/24 12:12:49;;;;;;;4.18;3.78;;;;;;;;;;5034459;28;20025;-77
2022/07/24 12:15:14;;;;;;;6.00;3.75;;;;;;;;;;5016225;28;20466;-77
2022/07/24 12:17:52;;;;;;;5.10;3.38;;;;;;;;;;5013588;28;20068;-78
2022/07/24 12:20:20;;;;;;;4.00;3.25;;;;;;;;;;5033662;28;20037;-76
2022/07/24 12:22:46;;;;;;;4.93;3.47;;;;;;;;;;5017057;28;20025;-77
2022/07/24 12:25:12;;;;;;;3.35;3.05;;;;;;;;;;5035125;28;20018;-76
2022/07/24 12:27:44;;;;;;;4.43;3.90;;;;;;;;;;5034516;28;20084;-77
2022/07/24 12:30:19;;;;;;;5.40;3.58;;;;;;;;;;5015984;28;20030;-78
2022/07/24 12:32:53;;;;;;;4.32;3.90;;;;;;;;;;5033016;28;20052;-77
2022/07/24 12:35:18;;;;;;;6.72;3.80;;;;;;;;;;5035886;28;20026;-77
2022/07/24 12:37:44;;;;;;;4.18;3.75;;;;;;;;;;5017169;28;20029;-77
2022/07/24 12:40:32;;;;;;;3.85;3.45;;;;;;;;;;5014371;28;20053;-78
2022/07/24 12:42:59;;;;;;;4.60;4.18;;;;;;;;;;5007704;28;20038;-78
2022/07/24 12:45:28;;;;;;;5.45;4.13;;;;;;;;;;5031003;28;20428;-77
2022/07/24 12:48:08;;;;;;;5.90;3.88;;;;;;;;;;5025284;28;20026;-78
2022/07/24 12:50:37;;;;;;;4.38;3.38;;;;;;;;;;5025170;28;20024;-77
2022/07/24 12:53:07;;;;;;;4.05;3.70;;;;;;;;;;5035173;28;20029;-78
2022/07/24 12:55:32;;;;;;;4.68;4.13;;;;;;;;;;5030572;28;20032;-77
2022/07/24 12:58:04;;;;;;;6.95;3.75;;;;;;;;;;5016538;28;20025;-77
2022/07/24 13:00:30;;;;;;;6.38;3.92;;;;;;;;;;5035056;28;20022;-77
2022/07/24 13:02:56;;;;;;;5.65;4.15;;;;;;;;;;5026708;28;20033;-77
2022/07/24 13:05:40;;;;;;;4.60;4.10;;;;;;;;;;5032814;28;20017;-76
2022/07/24 13:08:08;;;;;;;4.57;3.88;;;;;;;;;;5031991;28;20508;-77
2022/07/24 13:10:36;;;;;;;6.60;4.05;;;;;;;;;;5032940;28;20041;-77
2022/07/24 13:13:02;;;;;;;5.28;4.45;;;;;;;;;;5021150;28;20036;-78
2022/07/24 13:15:27;;;;;;;6.65;4.75;;;;;;;;;;5033544;28;20033;-78
2022/07/24 13:17:53;;;;;;;5.10;4.10;;;;;;;;;;5027767;28;20560;-77
2022/07/24 13:20:18;;;;;;;7.72;4.13;;;;;;;;;;5016054;28;20358;-78
2022/07/24 13:22:46;;;;;;;5.97;4.18;;;;;;;;;;5007382;28;20411;-77
2022/07/24 13:25:11;;;;;;;5.03;3.75;;;;;;;;;;5032333;28;20025;-78
2022/07/24 13:27:37;;;;;;;5.43;3.57;;;;;;;;;;5014475;28;20029;-78
2022/07/24 13:30:03;;;;;;;3.87;3.47;;;;;;;;;;5032815;28;20262;-77
2022/07/24 13:32:28;;;;;;;6.57;4.18;;;;;;;;;;5012307;28;20781;-78
2022/07/24 13:34:54;;;;;;;5.95;4.70;;;;;;;;;;5032116;28;20035;-77
2022/07/24 13:37:19;;;;;;;5.55;4.30;;;;;;;;;;5030816;28;20489;-76
2022/07/24 13:39:44;;;;;;;5.00;3.80;;;;;;;;;;5012845;28;20121;-77
2022/07/24 13:42:09;;;;;;;4.43;4.03;;;;;;;;;;5029638;28;20041;-77
2022/07/24 13:44:35;;;;;;;4.10;3.70;;;;;;;;;;5014660;28;20295;-77
2022/07/24 13:47:00;;;;;;;7.72;3.92;;;;;;;;;;5031554;28;20025;-77
2022/07/24 13:49:25;;;;;;;5.43;4.10;;;;;;;;;;5033053;28;20017;-77
2022/07/24 13:51:50;;;;;;;5.00;3.72;;;;;;;;;;4998963;28;20278;-78
2022/07/24 13:54:18;;;;;;;5.30;3.70;;;;;;;;;;5033024;28;20048;-77
2022/07/24 13:56:44;;;;;;;6.68;4.25;;;;;;;;;;5024774;28;20290;-77
2022/07/24 13:59:09;;;;;;;4.63;3.97;;;;;;;;;;5030164;28;20021;-77
2022/07/24 14:01:34;;;;;;;5.13;3.40;;;;;;;;;;5010618;28;20038;-77
2022/07/24 14:04:00;;;;;;;7.87;3.87;;;;;;;;;;5028066;28;20394;-78
2022/07/24 14:06:26;;;;;;;4.20;3.00;;;;;;;;;;5028993;28;20282;-78
2022/07/24 14:08:54;;;;;;;5.15;3.70;;;;;;;;;;5029145;28;20034;-78
2022/07/24 14:11:19;;;;;;;7.07;4.00;;;;;;;;;;5011883;28;20029;-78
2022/07/24 14:13:47;;;;;;;5.70;4.17;;;;;;;;;;5029348;28;20033;-78
2022/07/24 14:16:12;;;;;;;5.18;3.92;;;;;;;;;;5028959;28;20290;-77
2022/07/24 14:18:38;;;;;;;4.50;3.60;;;;;;;;;;5028883;28;20022;-77
2022/07/24 14:21:03;;;;;;;5.72;4.00;;;;;;;;;;5027540;28;20025;-77
2022/07/24 14:23:28;;;;;;;8.82;4.57;;;;;;;;;;5029947;28;20029;-77
2022/07/24 14:25:53;;;;;;;4.57;3.47;;;;;;;;;;5029040;28;20040;-77
2022/07/24 14:28:19;;;;;;;4.28;3.53;;;;;;;;;;5030369;28;20247;-78
2022/07/24 14:30:44;;;;;;;4.78;3.42;;;;;;;;;;5012081;28;20026;-77
2022/07/24 14:33:10;;;;;;;3.83;3.25;;;;;;;;;;5019039;28;20033;-78
2022/07/24 14:35:35;;;;;;;6.82;3.63;;;;;;;;;;5005542;28;20025;-78